Terminal Aerodrome Forecast
Issued by NWS

Home | Current Version | Previous Version | Text Only | Print | Product List | Glossary On
Versions: 1 2 3 4 5 6 7 8 9 10 11 12 13 14 15 16 17 18 19 20 21 22 23 24 25 26 27 28 29 30 31 32
975
FTUS43 KDVN 252342
TAFCID
TAF
KCID 252342Z 2600/2624 25012G19KT P6SM FEW060
     FM260200 28007KT P6SM SKC
     FM261200 02007KT P6SM SCT015
     FM261500 06013G19KT P6SM SCT020=

USA.gov is the U.S. government's official web portal to all federal, state and local government web resources and services.